nws-alerts: Checking more than four warning/county codes can delay the loading of your pages. You should use a cron job to get the data.
EllijayWeather Station Historical Data
Daily Summary for August 18, 2018 Units:  English    Metric   Both
Daily Weekly Monthly Yearly Custom
  High: Low: Average:
Temperature: 78.1 °F 70.5 °F 73.3 °F
Dew Point: 74.8 °F 69.1 °F 71.7 °F
Humidity: 96% 86% 95%
Wind Speed: 4mph 0mph 0.1mph
Wind Gust: 6mph - -
Wind- - SSE
Pressure: 30.12 in 29.95 in -
Precipitation: 0.36 in    
Historical Graphs
 
 
Tabular Data for August 18, 2018
Time Temperature Dew Point Pressure Wind Wind Speed Wind Gust Humidity Rainfall Rate (Hourly) solar
00:04 71.8 °F 69.6 °F 30.12 in Calm     93% 0.15 in meteobridge W/m2
00:09 71.6 °F 69.8 °F 30.11 in Calm     94% 0.16 in meteobridge W/m2
00:14 71.4 °F 69.6 °F 30.12 in Calm     94% 0.17 in meteobridge W/m2
00:19 71.4 °F 69.6 °F 30.12 in Calm     94% 0.17 in meteobridge W/m2
00:24 71.4 °F 69.6 °F 30.12 in Calm     94% 0.17 in meteobridge W/m2
00:29 71.4 °F 69.6 °F 30.12 in Calm     94% 0.17 in meteobridge W/m2
00:34 71.4 °F 69.6 °F 30.11 in Calm     94% 0.17 in meteobridge W/m2
00:39 71.2 °F 69.4 °F 30.11 in Calm     94% 0.17 in meteobridge W/m2
00:44 71.2 °F 69.4 °F 30.11 in Calm     94% 0.16 in meteobridge W/m2
00:49 71.2 °F 69.4 °F 30.11 in Calm     94% 0.14 in meteobridge W/m2
00:54 71.2 °F 69.4 °F 30.11 in Calm     94% 0.12 in meteobridge W/m2
00:59 71.2 °F 69.4 °F 30.11 in Calm     94% 0.07 in meteobridge W/m2
01:04 71.2 °F 69.8 °F 30.11 in Calm     95% 0.02 in meteobridge W/m2
01:09 71.1 °F 69.6 °F 30.11 in Calm     95% 0.01 in meteobridge W/m2
01:14 71.1 °F 69.6 °F 30.10 in Calm     95% 0 in meteobridge W/m2
01:19 71.1 °F 69.6 °F 30.10 in Calm     95% 0 in meteobridge W/m2
01:24 70.9 °F 69.4 °F 30.10 in Calm     95% 0 in meteobridge W/m2
01:29 70.9 °F 69.4 °F 30.10 in Calm     95% 0 in meteobridge W/m2
01:34 70.9 °F 69.4 °F 30.10 in Calm     95% 0 in meteobridge W/m2
01:39 70.7 °F 69.3 °F 30.10 in Calm     95% 0 in meteobridge W/m2
01:44 70.7 °F 69.3 °F 30.09 in Calm     95% 0 in meteobridge W/m2
01:49 70.7 °F 69.3 °F 30.09 in Calm     95% 0 in meteobridge W/m2
01:54 70.7 °F 69.3 °F 30.09 in Calm     95% 0 in meteobridge W/m2
01:59 70.5 °F 69.1 °F 30.09 in Calm     95% 0 in meteobridge W/m2
02:04 70.5 °F 69.1 °F 30.09 in Calm     95% 0 in meteobridge W/m2
02:09 70.5 °F 69.1 °F 30.09 in Calm     95% 0 in meteobridge W/m2
02:14 70.5 °F 69.1 °F 30.09 in Calm     95% 0 in meteobridge W/m2
02:19 70.5 °F 69.1 °F 30.09 in Calm     95% 0 in meteobridge W/m2
02:24 70.5 °F 69.1 °F 30.09 in Calm     95% 0 in meteobridge W/m2
02:29 70.5 °F 69.1 °F 30.09 in Calm     95% 0 in meteobridge W/m2
02:34 70.5 °F 69.1 °F 30.09 in Calm     95% 0 in meteobridge W/m2
02:39 70.5 °F 69.1 °F 30.09 in Calm     95% 0 in meteobridge W/m2
02:44 70.5 °F 69.1 °F 30.09 in Calm     95% 0 in meteobridge W/m2
02:49 70.5 °F 69.1 °F 30.09 in Calm     95% 0 in meteobridge W/m2
02:54 70.5 °F 69.1 °F 30.09 in Calm     95% 0 in meteobridge W/m2
02:59 70.5 °F 69.1 °F 30.09 in Calm     95% 0 in meteobridge W/m2
03:04 70.5 °F 69.1 °F 30.08 in Calm     95% 0 in meteobridge W/m2
03:09 70.5 °F 69.1 °F 30.09 in Calm     95% 0 in meteobridge W/m2
03:14 70.5 °F 69.1 °F 30.09 in Calm     95% 0 in meteobridge W/m2
03:19 70.7 °F 69.3 °F 30.09 in Calm     95% 0 in meteobridge W/m2
03:24 70.7 °F 69.3 °F 30.08 in Calm     95% 0 in meteobridge W/m2
03:29 70.7 °F 69.3 °F 30.08 in Calm     95% 0 in meteobridge W/m2
03:34 70.7 °F 69.3 °F 30.08 in Calm     95% 0 in meteobridge W/m2
03:39 70.5 °F 69.1 °F 30.08 in Calm     95% 0 in meteobridge W/m2
03:44 70.7 °F 69.3 °F 30.08 in Calm     95% 0 in meteobridge W/m2
03:49 70.9 °F 69.4 °F 30.08 in Calm     95% 0 in meteobridge W/m2
03:54 70.9 °F 69.4 °F 30.07 in Calm     95% 0 in meteobridge W/m2
03:59 70.7 °F 69.3 °F 30.07 in Calm     95% 0 in meteobridge W/m2
04:04 70.7 °F 69.3 °F 30.07 in Calm     95% 0 in meteobridge W/m2
04:09 70.5 °F 69.3 °F 30.07 in Calm     96% 0 in meteobridge W/m2
04:14 70.5 °F 69.3 °F 30.07 in Calm     96% 0 in meteobridge W/m2
04:19 70.7 °F 69.4 °F 30.07 in Calm     96% 0 in meteobridge W/m2
04:24 70.7 °F 69.4 °F 30.07 in Calm     96% 0 in meteobridge W/m2
04:29 70.7 °F 69.4 °F 30.07 in Calm     96% 0 in meteobridge W/m2
04:34 70.7 °F 69.4 °F 30.07 in Calm     96% 0 in meteobridge W/m2
04:39 70.7 °F 69.4 °F 30.07 in Calm     96% 0 in meteobridge W/m2
04:44 70.9 °F 69.6 °F 30.07 in Calm     96% 0 in meteobridge W/m2
04:49 70.9 °F 69.6 °F 30.07 in Calm     96% 0 in meteobridge W/m2
04:54 71.1 °F 69.8 °F 30.07 in Calm     96% 0 in meteobridge W/m2
04:59 71.1 °F 69.8 °F 30.07 in Calm     96% 0 in meteobridge W/m2
05:04 71.2 °F 70 °F 30.07 in Calm     96% 0 in meteobridge W/m2
05:09 71.2 °F 70 °F 30.07 in Calm   1 mph 96% 0 in meteobridge W/m2
05:14 71.2 °F 70 °F 30.07 in Calm   2 mph 96% 0 in meteobridge W/m2
05:19 71.2 °F 70 °F 30.07 in Calm     96% 0 in meteobridge W/m2
05:24 71.2 °F 70 °F 30.07 in Calm   2 mph 96% 0 in meteobridge W/m2
05:29 71.4 °F 70.2 °F 30.07 in Calm     96% 0 in meteobridge W/m2
05:34 71.4 °F 70.2 °F 30.07 in Calm     96% 0 in meteobridge W/m2
05:39 71.4 °F 70.2 °F 30.07 in Calm     96% 0 in meteobridge W/m2
05:44 71.6 °F 70.3 °F 30.07 in Calm     96% 0 in meteobridge W/m2
05:49 71.6 °F 70.3 °F 30.07 in Calm     96% 0 in meteobridge W/m2
05:54 71.8 °F 70.5 °F 30.07 in Calm     96% 0 in meteobridge W/m2
05:59 71.8 °F 70.5 °F 30.07 in Calm   2 mph 96% 0 in meteobridge W/m2
06:04 71.8 °F 70.5 °F 30.07 in Calm     96% 0 in meteobridge W/m2
06:09 71.8 °F 70.5 °F 30.07 in Calm     96% 0 in meteobridge W/m2
06:14 71.8 °F 70.5 °F 30.07 in Calm     96% 0 in meteobridge W/m2
06:19 72 °F 70.7 °F 30.07 in Calm     96% 0 in meteobridge W/m2
06:24 72 °F 70.7 °F 30.07 in NNW 0.9 mph 1 mph 96% 0 in meteobridge W/m2
06:29 72 °F 70.7 °F 30.07 in Calm     96% 0 in meteobridge W/m2
06:34 72 °F 70.7 °F 30.07 in Calm     96% 0 in meteobridge W/m2
06:39 72 °F 70.7 °F 30.07 in Calm     96% 0 in meteobridge W/m2
06:44 72 °F 70.7 °F 30.07 in Calm   1 mph 96% 0 in meteobridge W/m2
06:49 72 °F 70.7 °F 30.07 in Calm     96% 0 in meteobridge W/m2
06:54 72 °F 70.7 °F 30.07 in ENE 0.9 mph 2 mph 96% 0 in meteobridge W/m2
06:59 72 °F 70.7 °F 30.07 in NNE 0.9 mph 1 mph 96% 0 in meteobridge W/m2
07:04 72 °F 70.7 °F 30.07 in Calm     96% 0 in meteobridge W/m2
07:09 72 °F 70.7 °F 30.07 in Calm     96% 0 in meteobridge W/m2
07:14 71.8 °F 70.5 °F 30.07 in Calm     96% 0 in meteobridge W/m2
07:19 71.8 °F 70.5 °F 30.08 in Calm   1 mph 96% 0 in meteobridge W/m2
07:24 71.8 °F 70.5 °F 30.08 in Calm   1 mph 96% 0.01 in meteobridge W/m2
07:29 71.8 °F 70.5 °F 30.08 in Calm   5 mph 96% 0.01 in meteobridge W/m2
07:34 71.8 °F 70.5 °F 30.08 in Calm   1 mph 96% 0.01 in meteobridge W/m2
07:39 71.8 °F 70.5 °F 30.08 in Calm   1 mph 96% 0.01 in meteobridge W/m2
07:44 71.8 °F 70.5 °F 30.08 in Calm   1 mph 96% 0.01 in meteobridge W/m2
07:49 71.8 °F 70.5 °F 30.08 in Calm   1 mph 96% 0.01 in meteobridge W/m2
07:54 71.8 °F 70.5 °F 30.08 in Calm     96% 0.02 in meteobridge W/m2
07:59 71.8 °F 70.5 °F 30.08 in Calm     96% 0.02 in meteobridge W/m2
08:04 71.8 °F 70.5 °F 30.08 in Calm     96% 0.02 in meteobridge W/m2
08:09 71.8 °F 70.5 °F 30.08 in Calm     96% 0.02 in meteobridge W/m2
08:14 71.8 °F 70.5 °F 30.08 in Calm     96% 0.02 in meteobridge W/m2
08:19 71.8 °F 70.5 °F 30.07 in Calm     96% 0.02 in meteobridge W/m2
08:24 71.8 °F 70.5 °F 30.07 in Calm     96% 0.02 in meteobridge W/m2
08:29 71.8 °F 70.5 °F 30.07 in Calm     96% 0.01 in meteobridge W/m2
08:34 71.8 °F 70.5 °F 30.07 in NNE 0.9 mph 1 mph 96% 0.01 in meteobridge W/m2
08:39 71.8 °F 70.5 °F 30.07 in Calm     96% 0.01 in meteobridge W/m2
08:44 71.8 °F 70.5 °F 30.07 in Calm     96% 0.01 in meteobridge W/m2
08:49 71.8 °F 70.5 °F 30.07 in Calm     96% 0.01 in meteobridge W/m2
08:54 71.8 °F 70.5 °F 30.07 in Calm     96% 0 in meteobridge W/m2
08:59 71.8 °F 70.5 °F 30.07 in Calm     96% 0 in meteobridge W/m2
09:04 71.8 °F 70.5 °F 30.08 in Calm     96% 0.01 in meteobridge W/m2
09:09 71.8 °F 70.5 °F 30.08 in Calm     96% 0.01 in meteobridge W/m2
09:14 71.8 °F 70.5 °F 30.08 in Calm   3 mph 96% 0.01 in meteobridge W/m2
09:19 71.8 °F 70.5 °F 30.08 in Calm     96% 0.01 in meteobridge W/m2
09:24 71.8 °F 70.5 °F 30.08 in Calm   1 mph 96% 0.01 in meteobridge W/m2
09:29 72 °F 70.7 °F 30.08 in Calm   1 mph 96% 0.01 in meteobridge W/m2
09:34 72 °F 70.7 °F 30.08 in Calm     96% 0.01 in meteobridge W/m2
09:39 72 °F 70.7 °F 30.08 in Calm     96% 0.01 in meteobridge W/m2
09:44 72 °F 70.7 °F 30.08 in Calm     96% 0.01 in meteobridge W/m2
09:49 72 °F 70.7 °F 30.07 in Calm     96% 0.01 in meteobridge W/m2
09:54 72 °F 70.7 °F 30.07 in Calm     96% 0.01 in meteobridge W/m2
09:59 72.1 °F 70.9 °F 30.07 in Calm   1 mph 96% 0.01 in meteobridge W/m2
10:04 72.1 °F 70.9 °F 30.08 in NNE 2 mph 2 mph 96% 0 in meteobridge W/m2
10:09 72.3 °F 71.1 °F 30.07 in Calm     96% 0 in meteobridge W/m2
10:14 72.3 °F 71.1 °F 30.07 in Calm     96% 0 in meteobridge W/m2
10:19 72.7 °F 71.4 °F 30.07 in Calm     96% 0 in meteobridge W/m2
10:24 72.9 °F 71.6 °F 30.07 in Calm     96% 0 in meteobridge W/m2
10:29 72.9 °F 71.6 °F 30.07 in Calm     96% 0 in meteobridge W/m2
10:34 72.7 °F 71.4 °F 30.07 in Calm     96% 0 in meteobridge W/m2
10:39 72.7 °F 71.4 °F 30.07 in Calm     96% 0 in meteobridge W/m2
10:44 72.5 °F 71.2 °F 30.07 in NNE 2 mph 3 mph 96% 0 in meteobridge W/m2
10:49 72.3 °F 71.1 °F 30.07 in Calm     96% 0 in meteobridge W/m2
10:54 72.5 °F 71.2 °F 30.08 in Calm     96% 0 in meteobridge W/m2
10:59 72.7 °F 71.4 °F 30.07 in Calm     96% 0 in meteobridge W/m2
11:04 72.9 °F 71.6 °F 30.07 in Calm     96% 0 in meteobridge W/m2
11:09 72.9 °F 71.6 °F 30.07 in Calm     96% 0 in meteobridge W/m2
11:14 73 °F 71.8 °F 30.07 in Calm   1 mph 96% 0 in meteobridge W/m2
11:19 73 °F 71.8 °F 30.07 in Calm     96% 0 in meteobridge W/m2
11:24 73.2 °F 72 °F 30.07 in Calm     96% 0 in meteobridge W/m2
11:29 73.2 °F 72 °F 30.06 in ENE 0.9 mph 1 mph 96% 0 in meteobridge W/m2
11:34 73.4 °F 72.1 °F 30.06 in Calm     96% 0 in meteobridge W/m2
11:39 73.6 °F 72.3 °F 30.06 in Calm     96% 0 in meteobridge W/m2
11:44 73.9 °F 72.7 °F 30.05 in Calm   1 mph 96% 0 in meteobridge W/m2
11:49 74.3 °F 73 °F 30.05 in NNW 2.9 mph 6 mph 96% 0 in meteobridge W/m2
11:54 74.3 °F 72.9 °F 30.04 in Calm     95% 0 in meteobridge W/m2
11:59 74.7 °F 73.2 °F 30.04 in Calm     95% 0 in meteobridge W/m2
12:04 75 °F 73.4 °F 30.04 in Calm   1 mph 95% 0 in meteobridge W/m2
12:09 75.4 °F 73.8 °F 30.04 in Calm   1 mph 95% 0 in meteobridge W/m2
12:14 75.2 °F 73.4 °F 30.04 in Calm   1 mph 94% 0 in meteobridge W/m2
12:19 75.4 °F 73.6 °F 30.03 in Calm     94% 0 in meteobridge W/m2
12:24 75.2 °F 73.4 °F 30.03 in East 0.9 mph 1 mph 94% 0 in meteobridge W/m2
12:29 75.4 °F 73.2 °F 30.03 in Calm   6 mph 93% 0 in meteobridge W/m2
12:34 75.6 °F 73 °F 30.03 in Calm   1 mph 92% 0 in meteobridge W/m2
12:39 75.7 °F 73.6 °F 30.03 in Calm   1 mph 93% 0 in meteobridge W/m2
12:44 75.9 °F 73.8 °F 30.03 in Calm   1 mph 93% 0 in meteobridge W/m2
12:49 76.3 °F 74.1 °F 30.03 in Calm     93% 0 in meteobridge W/m2
12:54 76.5 °F 74.3 °F 30.03 in North 0.9 mph 1 mph 93% 0 in meteobridge W/m2
12:59 76.5 °F 73.6 °F 30.03 in Calm   6 mph 91% 0 in meteobridge W/m2
13:04 76.5 °F 73.9 °F 30.03 in North 4 mph 4 mph 92% 0 in meteobridge W/m2
13:09 76.5 °F 73.6 °F 30.03 in Calm     91% 0 in meteobridge W/m2
13:14 76.3 °F 73 °F 30.03 in Calm   3 mph 90% 0 in meteobridge W/m2
13:19 76.5 °F 73.2 °F 30.03 in Calm   2 mph 90% 0 in meteobridge W/m2
13:24 76.6 °F 73.2 °F 30.02 in Calm   2 mph 89% 0 in meteobridge W/m2
13:29 77.2 °F 73.8 °F 30.02 in Calm     89% 0 in meteobridge W/m2
13:34 77.5 °F 74.1 °F 30.02 in Calm   1 mph 89% 0 in meteobridge W/m2
13:39 77.7 °F 73.9 °F 30.02 in Calm     88% 0 in meteobridge W/m2
13:44 78.1 °F 73.6 °F 30.02 in Calm   3 mph 86% 0 in meteobridge W/m2
13:49 78.1 °F 73.9 °F 30.02 in Calm   1 mph 87% 0 in meteobridge W/m2
13:54 78.1 °F 73.9 °F 30.02 in Calm     87% 0 in meteobridge W/m2
13:59 77.9 °F 74.1 °F 30.02 in Calm     88% 0 in meteobridge W/m2
14:04 77.9 °F 73.4 °F 30.02 in Calm     86% 0 in meteobridge W/m2
14:09 78.1 °F 74.3 °F 30.01 in Calm     88% 0 in meteobridge W/m2
14:14 77.9 °F 73.8 °F 30.01 in Calm   1 mph 87% 0 in meteobridge W/m2
14:19 77.7 °F 73.6 °F 30.01 in Calm     87% 0 in meteobridge W/m2
14:24 77.7 °F 73.6 °F 30.01 in North 0.9 mph 1 mph 87% 0 in meteobridge W/m2
14:29 77.5 °F 73.4 °F 30.00 in Calm     87% 0.02 in meteobridge W/m2
14:34 77.2 °F 73.4 °F 30.00 in Calm     88% 0.03 in meteobridge W/m2
14:39 76.8 °F 73.6 °F 30.00 in Calm     90% 0.03 in meteobridge W/m2
14:44 76.6 °F 73.8 °F 30.00 in Calm     91% 0.03 in meteobridge W/m2
14:49 76.5 °F 73.9 °F 30.00 in Calm   1 mph 92% 0.03 in meteobridge W/m2
14:54 76.5 °F 73.9 °F 30.00 in Calm     92% 0.03 in meteobridge W/m2
14:59 76.3 °F 73.8 °F 30.00 in Calm     92% 0.03 in meteobridge W/m2
15:04 76.3 °F 73.8 °F 29.99 in NNW 2.9 mph 4 mph 92% 0.03 in meteobridge W/m2
15:09 75.9 °F 73.4 °F 29.99 in Calm   1 mph 92% 0.03 in meteobridge W/m2
15:14 75.7 °F 73.2 °F 29.99 in NNE 0.9 mph 2 mph 92% 0.03 in meteobridge W/m2
15:19 75.7 °F 73.6 °F 29.98 in Calm     93% 0.03 in meteobridge W/m2
15:24 76.1 °F 73.9 °F 29.98 in Calm   1 mph 93% 0.03 in meteobridge W/m2
15:29 76.3 °F 74.1 °F 29.98 in Calm   1 mph 93% 0.01 in meteobridge W/m2
15:34 76.1 °F 73.6 °F 29.97 in Calm   3 mph 92% 0 in meteobridge W/m2
15:39 76.3 °F 73.8 °F 29.97 in Calm     92% 0 in meteobridge W/m2
15:44 76.5 °F 73.9 °F 29.96 in Calm     92% 0 in meteobridge W/m2
15:49 76.8 °F 74.3 °F 29.96 in Calm   1 mph 92% 0 in meteobridge W/m2
15:54 77 °F 74.5 °F 29.96 in Calm     92% 0 in meteobridge W/m2
15:59 77 °F 74.5 °F 29.96 in Calm     92% 0 in meteobridge W/m2
16:04 77 °F 74.5 °F 29.96 in Calm   1 mph 92% 0 in meteobridge W/m2
16:09 77 °F 74.8 °F 29.96 in Calm     93% 0 in meteobridge W/m2
16:14 77 °F 74.8 °F 29.97 in WNW 2.9 mph 4 mph 93% 0.03 in meteobridge W/m2
16:19 76.1 °F 73.6 °F 29.96 in NNW 2.9 mph 4 mph 92% 0.2 in meteobridge W/m2
16:24 75.4 °F 72.9 °F 29.96 in Calm   5 mph 92% 0.23 in meteobridge W/m2
16:29 74.8 °F 72.3 °F 29.97 in Calm   1 mph 92% 0.23 in meteobridge W/m2
16:34 74.7 °F 72.5 °F 29.97 in Calm     93% 0.23 in meteobridge W/m2
16:39 74.7 °F 72.5 °F 29.96 in Calm   1 mph 93% 0.23 in meteobridge W/m2
16:44 74.7 °F 72.9 °F 29.96 in Calm     94% 0.23 in meteobridge W/m2
16:49 74.7 °F 72.9 °F 29.96 in Calm     94% 0.23 in meteobridge W/m2
16:54 74.8 °F 73.2 °F 29.96 in Calm   2 mph 95% 0.23 in meteobridge W/m2
16:59 75 °F 73.2 °F 29.96 in Calm   1 mph 94% 0.23 in meteobridge W/m2
17:04 75.2 °F 73.6 °F 29.96 in Calm     95% 0.23 in meteobridge W/m2
17:09 75.4 °F 73.8 °F 29.96 in Calm     95% 0.23 in meteobridge W/m2
17:14 75.4 °F 73.6 °F 29.96 in Calm   1 mph 94% 0.15 in meteobridge W/m2
17:19 75.2 °F 73.4 °F 29.96 in Calm     94% 0.03 in meteobridge W/m2
17:24 75.2 °F 73.6 °F 29.96 in Calm     95% 0 in meteobridge W/m2
17:29 75.4 °F 73.6 °F 29.96 in Calm     94% 0 in meteobridge W/m2
17:34 75.4 °F 73.8 °F 29.96 in Calm     95% 0 in meteobridge W/m2
17:39 75.7 °F 74.1 °F 29.95 in Calm     95% 0 in meteobridge W/m2
17:44 75.7 °F 74.1 °F 29.95 in Calm     95% 0 in meteobridge W/m2
17:49 75.7 °F 74.1 °F 29.95 in Calm     95% 0 in meteobridge W/m2
17:54 75.9 °F 74.3 °F 29.95 in Calm     95% 0 in meteobridge W/m2
17:59 75.9 °F 74.3 °F 29.95 in Calm     95% 0 in meteobridge W/m2
18:04 75.9 °F 74.3 °F 29.95 in Calm     95% 0 in meteobridge W/m2
18:09 75.7 °F 74.1 °F 29.95 in Calm     95% 0 in meteobridge W/m2
18:14 75.7 °F 74.1 °F 29.95 in Calm     95% 0 in meteobridge W/m2
18:19 75.6 °F 73.8 °F 29.96 in Calm     94% 0 in meteobridge W/m2
18:24 75.6 °F 73.9 °F 29.96 in Calm     95% 0 in meteobridge W/m2
18:29 75.6 °F 73.9 °F 29.96 in Calm     95% 0 in meteobridge W/m2
18:34 75.6 °F 73.9 °F 29.96 in Calm     95% 0 in meteobridge W/m2
18:39 75.7 °F 74.1 °F 29.96 in Calm     95% 0 in meteobridge W/m2
18:44 75.9 °F 74.3 °F 29.95 in Calm     95% 0 in meteobridge W/m2
18:49 75.9 °F 74.3 °F 29.95 in Calm     95% 0 in meteobridge W/m2
18:54 76.1 °F 74.5 °F 29.95 in Calm     95% 0 in meteobridge W/m2
18:59 76.3 °F 74.7 °F 29.95 in Calm     95% 0 in meteobridge W/m2
19:04 76.3 °F 74.7 °F 29.95 in Calm     95% 0 in meteobridge W/m2
19:09 75.6 °F 73.9 °F 29.95 in Calm     95% 0 in meteobridge W/m2
19:14 75.6 °F 73.9 °F 29.95 in Calm     95% 0 in meteobridge W/m2
19:19 75.6 °F 73.9 °F 29.95 in Calm     95% 0 in meteobridge W/m2
19:24 75.6 °F 73.9 °F 29.95 in Calm     95% 0 in meteobridge W/m2
19:29 75.6 °F 73.9 °F 29.95 in Calm     95% 0 in meteobridge W/m2
19:34 75.6 °F 73.9 °F 29.95 in Calm     95% 0 in meteobridge W/m2
19:39 75.4 °F 73.8 °F 29.96 in Calm     95% 0 in meteobridge W/m2
19:44 75.4 °F 73.8 °F 29.96 in Calm     95% 0 in meteobridge W/m2
19:49 75.4 °F 73.8 °F 29.96 in Calm     95% 0 in meteobridge W/m2
19:54 75.4 °F 73.8 °F 29.96 in Calm     95% 0 in meteobridge W/m2
19:59 75.4 °F 73.8 °F 29.97 in Calm     95% 0 in meteobridge W/m2
20:04 75.2 °F 73.6 °F 29.97 in Calm     95% 0 in meteobridge W/m2
20:09 75 °F 73.4 °F 29.96 in Calm     95% 0 in meteobridge W/m2
20:14 74.8 °F 73.2 °F 29.96 in Calm     95% 0 in meteobridge W/m2
20:19 74.7 °F 73.2 °F 29.96 in Calm     95% 0 in meteobridge W/m2
20:24 74.5 °F 73 °F 29.96 in Calm     95% 0.01 in meteobridge W/m2
20:29 74.1 °F 72.7 °F 29.96 in Calm     95% 0.01 in meteobridge W/m2
20:34 73.9 °F 72.5 °F 29.96 in Calm     95% 0.01 in meteobridge W/m2
20:39 73.8 °F 72.3 °F 29.97 in Calm     95% 0.01 in meteobridge W/m2
20:44 73.8 °F 72.3 °F 29.97 in Calm     95% 0.01 in meteobridge W/m2
20:49 73.6 °F 72.1 °F 29.96 in Calm     95% 0.01 in meteobridge W/m2
20:54 73.4 °F 72 °F 29.97 in Calm     95% 0.01 in meteobridge W/m2
20:59 73.2 °F 71.8 °F 29.97 in Calm     95% 0.01 in meteobridge W/m2
21:04 73.2 °F 71.8 °F 29.97 in Calm     95% 0.01 in meteobridge W/m2
21:09 73 °F 71.6 °F 29.97 in Calm     95% 0.01 in meteobridge W/m2
21:14 73 °F 71.6 °F 29.97 in Calm     95% 0.01 in meteobridge W/m2
21:19 72.9 °F 71.4 °F 29.96 in Calm     95% 0.01 in meteobridge W/m2
21:24 72.9 °F 71.4 °F 29.97 in Calm     95% 0 in meteobridge W/m2
21:29 72.9 °F 71.4 °F 29.97 in Calm     95% 0 in meteobridge W/m2
21:34 72.9 °F 71.4 °F 29.97 in Calm     95% 0 in meteobridge W/m2
21:39 72.9 °F 71.4 °F 29.98 in Calm     95% 0 in meteobridge W/m2
21:44 72.7 °F 71.2 °F 29.98 in Calm     95% 0 in meteobridge W/m2
21:49 72.7 °F 71.2 °F 29.98 in Calm     95% 0 in meteobridge W/m2
21:54 72.7 °F 71.2 °F 29.98 in Calm     95% 0 in meteobridge W/m2
21:59 72.7 °F 71.2 °F 29.99 in Calm     95% 0 in meteobridge W/m2
22:04 72.7 °F 71.2 °F 29.98 in Calm     95% 0 in meteobridge W/m2
22:09 72.7 °F 71.2 °F 29.98 in Calm     95% 0 in meteobridge W/m2
22:14 72.7 °F 71.2 °F 29.99 in Calm     95% 0 in meteobridge W/m2
22:19 72.7 °F 71.2 °F 29.98 in Calm     95% 0 in meteobridge W/m2
22:24 72.5 °F 71.2 °F 29.98 in Calm     96% 0 in meteobridge W/m2
22:29 72.5 °F 71.2 °F 29.99 in Calm     96% 0 in meteobridge W/m2
22:34 72.5 °F 71.2 °F 29.98 in Calm     96% 0 in meteobridge W/m2
22:39 72.5 °F 71.2 °F 29.98 in Calm     96% 0 in meteobridge W/m2
22:44 72.7 °F 71.4 °F 29.99 in Calm     96% 0 in meteobridge W/m2
22:49 72.7 °F 71.4 °F 29.98 in Calm   1 mph 96% 0 in meteobridge W/m2
22:54 72.7 °F 71.4 °F 29.98 in Calm     96% 0 in meteobridge W/m2
22:59 72.7 °F 71.4 °F 29.98 in Calm     96% 0 in meteobridge W/m2
23:04 72.7 °F 71.4 °F 29.98 in Calm     96% 0 in meteobridge W/m2
23:09 72.7 °F 71.4 °F 29.98 in Calm     96% 0 in meteobridge W/m2
23:13 72.7 °F 71.4 °F 29.98 in Calm     96% 0 in meteobridge W/m2
23:19 72.7 °F 71.4 °F 29.98 in Calm     96% 0 in meteobridge W/m2
23:24 72.7 °F 71.4 °F 29.98 in Calm     96% 0 in meteobridge W/m2
23:29 72.7 °F 71.4 °F 29.98 in Calm     96% 0 in meteobridge W/m2
23:34 72.7 °F 71.4 °F 29.98 in Calm     96% 0 in meteobridge W/m2
23:39 72.7 °F 71.4 °F 29.98 in Calm     96% 0 in meteobridge W/m2
23:44 72.5 °F 71.2 °F 29.98 in Calm     96% 0 in meteobridge W/m2
23:49 72.3 °F 71.1 °F 29.98 in Calm     96% 0 in meteobridge W/m2
23:54 72.3 °F 71.1 °F 29.98 in Calm     96% 0 in meteobridge W/m2
23:59 72.3 °F 71.1 °F 29.98 in Calm     96% 0 in meteobridge W/m2
EllijayWeather
Compliments of Weather Underground - 2.5 mb